Time;durP1;ratioP1;P1;durP2;ratioP2;P2;SDS_P1;SDS_P2;PMS_P1;PMS_P2;Temp;Humidity;BMP_temperature;BMP_pressure;BME280_temperature;BME280_humidity;BME280_pressure;Samples;Min_cycle;Max_cycle;Signal;HPM_P1;HPM_P2
2022/10/04 00:03:30;;;;;;;;;;;;;;;12.62;68.77246;102389.9;;;;-75
2022/10/04 00:08:31;;;;;;;;;;;;;;;12.6;69.10352;102392.4;;;;-75
2022/10/04 00:13:30;;;;;;;;;;;;;;;12.59;68.81055;102391;;;;-71
2022/10/04 00:18:32;;;;;;;;;;;;;;;12.6;68.69043;102389;;;;-77
2022/10/04 00:23:43;;;;;;;;;;;;;;;12.56;69.36523;102385;;;;-75
2022/10/04 00:26:40;;;;;;;8.8;3.5;;;;;;;;;;;;;-75
2022/10/04 00:28:44;;;;;;;;;;;;;;;12.55;68.71582;102387;;;;-75
2022/10/04 00:33:40;;;;;;;;;;;;;;;12.53;69.14746;102382.9;;;;-75
2022/10/04 00:38:31;;;;;;;;;;;;;;;12.49;68.94141;102368.7;;;;-74
2022/10/04 00:43:29;;;;;;;;;;;;;;;12.45;69.75879;102360.2;;;;-75
2022/10/04 00:48:39;;;;;;;;;;;;;;;12.38;69.55957;102345.8;;;;-75
2022/10/04 00:53:30;;;;;;;;;;;;;;;12.34;69.44238;102337.7;;;;-75
2022/10/04 00:56:35;;;;;;;9.5;3.5;;;;;;;;;;;;;-75
2022/10/04 00:58:29;;;;;;;;;;;;;;;12.29;69.03223;102345.8;;;;-74
2022/10/04 01:03:31;;;;;;;;;;;;;;;12.23;69.53516;102354.1;;;;-75
2022/10/04 01:08:31;;;;;;;;;;;;;;;12.17;69.03613;102342.6;;;;-74
2022/10/04 01:13:31;;;;;;;;;;;;;;;12.14;69.56641;102333;;;;-75
2022/10/04 01:18:37;;;;;;;;;;;;;;;12.13;69.07324;102328.5;;;;-75
2022/10/04 01:23:42;;;;;;;;;;;;;;;12.12;69.43945;102331;;;;-74
2022/10/04 01:26:42;;;;;;;8.5;3.4;;;;;;;;;;;;;-75
2022/10/04 01:28:28;;;;;;;;;;;;;;;12.09;69.86914;102327.6;;;;-76
2022/10/04 01:33:28;;;;;;;;;;;;;;;12.06;69.23047;102316.7;;;;-77
2022/10/04 01:38:27;;;;;;;;;;;;;;;12.05;69.25;102317.5;;;;-76
2022/10/04 01:43:30;;;;;;;;;;;;;;;12.01;69.34473;102322.7;;;;-75
2022/10/04 01:48:31;;;;;;;;;;;;;;;11.99;69.29688;102279.8;;;;-76
2022/10/04 01:53:30;;;;;;;;;;;;;;;11.93;69.6875;102281;;;;-74
2022/10/04 01:56:35;;;;;;;8.6;3.4;;;;;;;;;;;;;-76
2022/10/04 01:58:28;;;;;;;;;;;;;;;11.96;70.18164;102246.5;;;;-75
2022/10/04 02:03:32;;;;;;;;;;;;;;;11.93;70.26758;102254.1;;;;-74
2022/10/04 02:08:30;;;;;;;;;;;;;;;11.92;70.86621;102244.7;;;;-75
2022/10/04 02:13:30;;;;;;;;;;;;;;;11.9;71.06348;102228;;;;-75
2022/10/04 02:18:28;;;;;;;;;;;;;;;11.82;70.7832;102213.9;;;;-74
2022/10/04 02:23:28;;;;;;;;;;;;;;;11.81;70.88184;102212.6;;;;-75
2022/10/04 02:26:33;;;;;;;12.3;4.1;;;;;;;;;;;;;-74
2022/10/04 02:28:27;;;;;;;;;;;;;;;11.78;70.53223;102206.3;;;;-74
2022/10/04 02:33:27;;;;;;;;;;;;;;;11.71;71.14551;102194.3;;;;-75
2022/10/04 02:38:31;;;;;;;;;;;;;;;11.65;70.87891;102198.8;;;;-75
2022/10/04 02:43:30;;;;;;;;;;;;;;;11.62;70.81738;102195.9;;;;-73
2022/10/04 02:48:37;;;;;;;;;;;;;;;11.52;71.37012;102188.4;;;;-74
2022/10/04 02:53:29;;;;;;;;;;;;;;;11.47;70.90527;102179.1;;;;-74
2022/10/04 02:56:35;;;;;;;10;4.4;;;;;;;;;;;;;-75
2022/10/04 02:58:28;;;;;;;;;;;;;;;11.41;71.03906;102166.4;;;;-75
2022/10/04 03:03:30;;;;;;;;;;;;;;;11.38;70.85742;102173.9;;;;-74
2022/10/04 03:08:27;;;;;;;;;;;;;;;11.31;71.26758;102178.2;;;;-74
2022/10/04 03:13:27;;;;;;;;;;;;;;;11.27;71.19629;102179.9;;;;-74
2022/10/04 03:18:27;;;;;;;;;;;;;;;11.24;71.0332;102185.5;;;;-75
2022/10/04 03:23:27;;;;;;;;;;;;;;;11.17;71.12305;102171.4;;;;-74
2022/10/04 03:26:36;;;;;;;11.3;4.6;;;;;;;;;;;;;-75
2022/10/04 03:28:27;;;;;;;;;;;;;;;11.14;71.34082;102167.2;;;;-75
2022/10/04 03:33:28;;;;;;;;;;;;;;;11.06;71.22754;102155.7;;;;-75
2022/10/04 03:38:29;;;;;;;;;;;;;;;11.02;71.31055;102151.4;;;;-76
2022/10/04 03:43:33;;;;;;;;;;;;;;;10.99;71.41406;102148.9;;;;-74
2022/10/04 03:48:31;;;;;;;;;;;;;;;10.95;72.05371;102149.1;;;;-74
2022/10/04 03:53:34;;;;;;;;;;;;;;;10.88;72.3418;102143;;;;-73
2022/10/04 03:56:37;;;;;;;11.5;4.6;;;;;;;;;;;;;-75
2022/10/04 03:58:29;;;;;;;;;;;;;;;10.86;71.39551;102140;;;;-75
2022/10/04 04:03:29;;;;;;;;;;;;;;;10.82;71.89941;102135.9;;;;-76
2022/10/04 04:08:30;;;;;;;;;;;;;;;10.78;72.0918;102139.3;;;;-76
2022/10/04 04:13:30;;;;;;;;;;;;;;;10.74;71.83984;102143;;;;-76
2022/10/04 04:18:29;;;;;;;;;;;;;;;10.72;71.89258;102146.2;;;;-76
2022/10/04 04:23:31;;;;;;;;;;;;;;;10.7;71.86914;102139.2;;;;-75
2022/10/04 04:26:41;;;;;;;9.8;4.7;;;;;;;;;;;;;-76
2022/10/04 04:28:35;;;;;;;;;;;;;;;10.69;71.82031;102131.9;;;;-75
2022/10/04 04:33:31;;;;;;;;;;;;;;;10.67;72.08496;102131.3;;;;-75
2022/10/04 04:38:28;;;;;;;;;;;;;;;10.59;71.57227;102129;;;;-75
2022/10/04 04:43:29;;;;;;;;;;;;;;;10.57;71.85742;102130.2;;;;-73
2022/10/04 04:48:28;;;;;;;;;;;;;;;10.54;71.72949;102133.7;;;;-76
2022/10/04 04:53:29;;;;;;;;;;;;;;;10.49;72.09961;102122.1;;;;-73
2022/10/04 04:56:38;;;;;;;9;4.9;;;;;;;;;;;;;-75
2022/10/04 04:58:31;;;;;;;;;;;;;;;10.47;72.24219;102116.1;;;;-75
2022/10/04 05:03:29;;;;;;;;;;;;;;;10.44;71.8252;102110.7;;;;-76
2022/10/04 05:08:29;;;;;;;;;;;;;;;10.43;71.86719;102108.9;;;;-74
2022/10/04 05:13:30;;;;;;;;;;;;;;;10.41;72.36328;102110.4;;;;-75
2022/10/04 05:18:34;;;;;;;;;;;;;;;10.42;72.2666;102110.1;;;;-75
2022/10/04 05:23:27;;;;;;;;;;;;;;;10.4;72.16211;102116.9;;;;-75
2022/10/04 05:26:38;;;;;;;9.3;5.2;;;;;;;;;;;;;-76
2022/10/04 05:28:27;;;;;;;;;;;;;;;10.37;72.40137;102118.8;;;;-75
2022/10/04 05:33:30;;;;;;;;;;;;;;;10.34;72.77344;102117.4;;;;-74
2022/10/04 05:38:32;;;;;;;;;;;;;;;10.31;72.71191;102109.8;;;;-75
2022/10/04 05:43:29;;;;;;;;;;;;;;;10.28;72.65234;102107.7;;;;-75
2022/10/04 05:48:27;;;;;;;;;;;;;;;10.26;72.72656;102105.1;;;;-75
2022/10/04 05:53:34;;;;;;;;;;;;;;;10.25;73.21289;102103.5;;;;-75
2022/10/04 05:56:53;;;;;;;13.2;6.1;;;;;;;;;;;;;-75
2022/10/04 05:58:35;;;;;;;;;;;;;;;10.22;73.56152;102092.5;;;;-74
2022/10/04 06:03:39;;;;;;;;;;;;;;;10.17;73.21973;102104.1;;;;-75
2022/10/04 06:08:37;;;;;;;;;;;;;;;10.15;73.18457;102094.5;;;;-74
2022/10/04 06:13:34;;;;;;;;;;;;;;;10.14;73.60254;102093.2;;;;-75
2022/10/04 06:18:38;;;;;;;;;;;;;;;10.13;74.10156;102090.4;;;;-75
2022/10/04 06:23:29;;;;;;;;;;;;;;;10.14;73.48145;102082.2;;;;-75
2022/10/04 06:26:42;;;;;;;12.2;6.5;;;;;;;;;;;;;-76
2022/10/04 06:28:30;;;;;;;;;;;;;;;10.13;74.15625;102082.4;;;;-76
2022/10/04 06:33:34;;;;;;;;;;;;;;;10.13;74.30078;102077.2;;;;-73
2022/10/04 06:38:39;;;;;;;;;;;;;;;10.15;74.50293;102078.6;;;;-76
2022/10/04 06:43:38;;;;;;;;;;;;;;;10.24;74.50586;102079.4;;;;-75
2022/10/04 06:48:36;;;;;;;;;;;;;;;10.29;75.46582;102077.2;;;;-76
2022/10/04 06:53:41;;;;;;;;;;;;;;;10.37;75.72363;102073.2;;;;-75
2022/10/04 06:56:48;;;;;;;15.8;7.8;;;;;;;;;;;;;-76
2022/10/04 06:58:50;;;;;;;;;;;;;;;10.49;75.25879;102083.7;;;;-75
2022/10/04 07:03:30;;;;;;;;;;;;;;;10.58;74.44238;102084;;;;-76
2022/10/04 07:08:35;;;;;;;;;;;;;;;10.73;74.66895;102078;;;;-76
2022/10/04 07:13:33;;;;;;;;;;;;;;;10.88;75.2041;102080.5;;;;-75
2022/10/04 07:18:31;;;;;;;;;;;;;;;11.12;74.73535;102073.6;;;;-76
2022/10/04 07:23:31;;;;;;;;;;;;;;;11.34;75.00488;102073.4;;;;-76
2022/10/04 07:26:46;;;;;;;16.5;8.1;;;;;;;;;;;;;-75
2022/10/04 07:33:30;;;;;;;;;;;;;;;11.57;75.45703;102080.6;;;;-75
2022/10/04 07:38:29;;;;;;;;;;;;;;;11.65;75.31445;102080;;;;-75
2022/10/04 07:43:32;;;;;;;;;;;;;;;11.74;75.43066;102087.1;;;;-75
2022/10/04 07:48:27;;;;;;;;;;;;;;;11.87;75.19629;102097.6;;;;-74
2022/10/04 07:53:30;;;;;;;;;;;;;;;11.98;74.29102;102085.2;;;;-75
2022/10/04 07:56:46;;;;;;;17.7;8.3;;;;;;;;;;;;;-75
2022/10/04 07:58:31;;;;;;;;;;;;;;;12.19;74.25;102087.3;;;;-75
2022/10/04 08:03:39;;;;;;;;;;;;;;;12.54;74.46387;102084.4;;;;-75
2022/10/04 08:08:32;;;;;;;;;;;;;;;12.98;74.57129;102089.3;;;;-75
2022/10/04 08:13:31;;;;;;;;;;;;;;;13.37;72.63086;102082.6;;;;-75
2022/10/04 08:18:31;;;;;;;;;;;;;;;13.45;72.39746;102080.2;;;;-74
2022/10/04 08:23:35;;;;;;;;;;;;;;;13.46;72.03027;102070.5;;;;-72
2022/10/04 08:26:56;;;;;;;18.4;8.4;;;;;;;;;;;;;-76
2022/10/04 08:33:34;;;;;;;;;;;;;;;14.04;71.63379;102058.3;;;;-75
2022/10/04 08:38:45;;;;;;;;;;;;;;;14.35;70.63379;102061.4;;;;-75
2022/10/04 08:43:55;;;;;;;;;;;;;;;14.59;70.10059;102064.7;;;;-76
2022/10/04 08:48:45;;;;;;;;;;;;;;;14.93;69.44629;102063.9;;;;-75
2022/10/04 08:53:38;;;;;;;;;;;;;;;15.36;67.83105;102063.6;;;;-75
2022/10/04 08:56:58;;;;;;;15.5;7.7;;;;;;;;;;;;;-74
2022/10/04 08:58:43;;;;;;;;;;;;;;;15.52;67.20508;102067.5;;;;-75
2022/10/04 09:03:38;;;;;;;;;;;;;;;15.78;66.25391;102073.1;;;;-74
2022/10/04 09:08:57;;;;;;;;;;;;;;;16.04;66.27148;102064.5;;;;-75
2022/10/04 09:13:35;;;;;;;;;;;;;;;16.03;66.25879;102068.7;;;;-75
2022/10/04 09:18:33;;;;;;;;;;;;;;;16.3;65.08301;102067.3;;;;-75
2022/10/04 09:23:50;;;;;;;;;;;;;;;16.56;64.81641;102057;;;;-75
2022/10/04 09:26:50;;;;;;;14.2;7.4;;;;;;;;;;;;;-75
2022/10/04 09:28:38;;;;;;;;;;;;;;;16.9;63.76172;102046.6;;;;-76
2022/10/04 09:33:35;;;;;;;;;;;;;;;17.06;62.58691;102040.3;;;;-75
2022/10/04 09:38:41;;;;;;;;;;;;;;;17.09;63.28027;102040.7;;;;-75
2022/10/04 09:43:41;;;;;;;;;;;;;;;17.41;62.45703;102032;;;;-74
2022/10/04 09:48:35;;;;;;;;;;;;;;;17.96;61.52637;102035.4;;;;-75
2022/10/04 09:53:33;;;;;;;;;;;;;;;18.17;60.77441;102048.9;;;;-74
2022/10/04 09:56:53;;;;;;;12.8;6.7;;;;;;;;;;;;;-76
2022/10/04 09:58:40;;;;;;;;;;;;;;;18.31;60.48828;102050;;;;-76
2022/10/04 10:03:34;;;;;;;;;;;;;;;18.35;60.64063;102047.8;;;;-74
2022/10/04 10:08:32;;;;;;;;;;;;;;;18.39;60.21484;102041;;;;-75
2022/10/04 10:13:44;;;;;;;;;;;;;;;18.5;60.28809;102044.5;;;;-74
2022/10/04 10:18:32;;;;;;;;;;;;;;;18.63;59.86133;102038;;;;-74
2022/10/04 10:23:47;;;;;;;;;;;;;;;18.49;60.45605;102034.1;;;;-74
2022/10/04 10:26:56;;;;;;;12.9;6.2;;;;;;;;;;;;;-75
2022/10/04 10:28:43;;;;;;;;;;;;;;;18.79;59.81543;102031.9;;;;-75
2022/10/04 10:33:36;;;;;;;;;;;;;;;18.98;59.12598;102024.1;;;;-75
2022/10/04 10:38:43;;;;;;;;;;;;;;;19.25;58.79785;102025.9;;;;-75
2022/10/04 10:43:41;;;;;;;;;;;;;;;19.4;59.375;102020.1;;;;-73
2022/10/04 10:48:35;;;;;;;;;;;;;;;19.49;57.90918;102015.8;;;;-75
2022/10/04 10:53:41;;;;;;;;;;;;;;;19.77;58.04883;102014.1;;;;-75
2022/10/04 10:57:03;;;;;;;8.8;5;;;;;;;;;;;;;-78
2022/10/04 10:58:41;;;;;;;;;;;;;;;19.89;58.55176;102004.3;;;;-78
2022/10/04 11:03:33;;;;;;;;;;;;;;;19.82;58.58887;102010.2;;;;-78
2022/10/04 11:08:39;;;;;;;;;;;;;;;19.82;56.98633;102009.3;;;;-78
2022/10/04 11:13:41;;;;;;;;;;;;;;;19.76;58.93457;102006.2;;;;-78
2022/10/04 11:18:39;;;;;;;;;;;;;;;19.71;59.42676;101998.5;;;;-77
2022/10/04 11:23:51;;;;;;;;;;;;;;;19.66;58.62402;101991.5;;;;-77
2022/10/04 11:27:04;;;;;;;10.9;5;;;;;;;;;;;;;-79
2022/10/04 11:28:34;;;;;;;;;;;;;;;19.82;57.54297;101987.1;;;;-78
2022/10/04 11:33:38;;;;;;;;;;;;;;;19.97;57.91406;101997.4;;;;-77
2022/10/04 11:38:35;;;;;;;;;;;;;;;20.05;59.7002;101988.6;;;;-77
2022/10/04 11:43:34;;;;;;;;;;;;;;;20.04;56.20605;101976.6;;;;-74
2022/10/04 11:48:34;;;;;;;;;;;;;;;20.16;57.51758;101976.2;;;;-74
2022/10/04 11:53:51;;;;;;;;;;;;;;;20.18;57.44043;101973.6;;;;-72
2022/10/04 11:57:09;;;;;;;8;3.4;;;;;;;;;;;;;-74
2022/10/04 11:58:31;;;;;;;;;;;;;;;20.04;55.60156;101969.8;;;;-75
2022/10/04 12:03:39;;;;;;;;;;;;;;;20.03;55.17871;101953.2;;;;-75
2022/10/04 12:08:34;;;;;;;;;;;;;;;19.96;56.58203;101949.4;;;;-74
2022/10/04 12:13:41;;;;;;;;;;;;;;;19.95;57.58203;101946.8;;;;-74
2022/10/04 12:18:35;;;;;;;;;;;;;;;20.02;56.94238;101948.1;;;;-74
2022/10/04 12:23:50;;;;;;;;;;;;;;;20.05;57.94727;101938.3;;;;-73
2022/10/04 12:27:23;;;;;;;7.6;3;;;;;;;;;;;;;-74
2022/10/04 12:28:33;;;;;;;;;;;;;;;20.02;55.74805;101922.3;;;;-75
2022/10/04 12:33:33;;;;;;;;;;;;;;;20.09;56.67871;101919.2;;;;-74
2022/10/04 12:38:35;;;;;;;;;;;;;;;20.07;60.06641;101907;;;;-74
2022/10/04 12:43:31;;;;;;;;;;;;;;;20.08;56.07324;101902.9;;;;-77
2022/10/04 12:48:34;;;;;;;;;;;;;;;20.11;56.78418;101906.2;;;;-75
2022/10/04 12:53:33;;;;;;;;;;;;;;;20.12;59.15332;101888.1;;;;-74
2022/10/04 12:57:09;;;;;;;5.2;2.9;;;;;;;;;;;;;-75
2022/10/04 12:58:32;;;;;;;;;;;;;;;20.2;56.58984;101878.4;;;;-74
2022/10/04 13:03:34;;;;;;;;;;;;;;;20.33;60.30664;101882.9;;;;-74
2022/10/04 13:08:34;;;;;;;;;;;;;;;20.31;55.48633;101878.7;;;;-74
2022/10/04 13:13:40;;;;;;;;;;;;;;;20.2;53.82031;101858.4;;;;-75
2022/10/04 13:18:30;;;;;;;;;;;;;;;20.47;54.22852;101848.9;;;;-74
2022/10/04 13:23:38;;;;;;;;;;;;;;;20.48;58.0498;101844.5;;;;-74
2022/10/04 13:27:07;;;;;;;6.7;2.9;;;;;;;;;;;;;-74
2022/10/04 13:28:31;;;;;;;;;;;;;;;20.45;53.57617;101833.8;;;;-74
2022/10/04 13:33:35;;;;;;;;;;;;;;;20.45;54.23926;101833.8;;;;-74
2022/10/04 13:38:36;;;;;;;;;;;;;;;20.45;53.57617;101833.9;;;;-73
2022/10/04 13:43:40;;;;;;;;;;;;;;;20.43;54.06445;101833.5;;;;-74
2022/10/04 13:48:36;;;;;;;;;;;;;;;20.33;54.29199;101828;;;;-75
2022/10/04 13:57:19;;;;;;;7.4;3.2;;;;;;;;;;;;;-75
2022/10/04 13:58:38;;;;;;;;;;;;;;;20.4;56.20508;101817.2;;;;-74
2022/10/04 14:03:36;;;;;;;;;;;;;;;20.43;55.35352;101828.8;;;;-73
2022/10/04 14:08:40;;;;;;;;;;;;;;;20.44;54.84277;101840.6;;;;-75
2022/10/04 14:13:39;;;;;;;;;;;;;;;20.4;54.95117;101842.1;;;;-74
2022/10/04 14:18:53;;;;;;;;;;;;;;;20.35;54.35156;101841.5;;;;-74
2022/10/04 14:23:42;;;;;;;;;;;;;;;20.35;54.87598;101832.3;;;;-74
2022/10/04 14:27:23;;;;;;;7.2;2.9;;;;;;;;;;;;;-73
2022/10/04 14:28:40;;;;;;;;;;;;;;;20.39;54.31152;101822.1;;;;-75
2022/10/04 14:33:38;;;;;;;;;;;;;;;20.35;55.26367;101834.2;;;;-75
2022/10/04 14:38:40;;;;;;;;;;;;;;;20.32;56.05762;101836.4;;;;-74
2022/10/04 14:43:38;;;;;;;;;;;;;;;20.1;55.0957;101844.5;;;;-74
2022/10/04 14:48:47;;;;;;;;;;;;;;;19.96;56.12695;101840.3;;;;-75
2022/10/04 14:53:31;;;;;;;;;;;;;;;19.79;57.08398;101841.8;;;;-74
2022/10/04 14:57:20;;;;;;;6.3;3.3;;;;;;;;;;;;;-75
2022/10/04 14:58:33;;;;;;;;;;;;;;;19.66;57.46582;101839.1;;;;-74
2022/10/04 15:03:33;;;;;;;;;;;;;;;19.61;58.00293;101837.3;;;;-75
2022/10/04 15:08:41;;;;;;;;;;;;;;;19.48;58.15723;101838.7;;;;-75
2022/10/04 15:13:28;;;;;;;;;;;;;;;19.35;58.46973;101841.5;;;;-73
2022/10/04 15:18:37;;;;;;;;;;;;;;;19.26;59.00488;101830.9;;;;-75
2022/10/04 15:23:36;;;;;;;;;;;;;;;19.19;59.38086;101832.1;;;;-74
2022/10/04 15:27:35;;;;;;;8;3.3;;;;;;;;;;;;;-77
2022/10/04 15:28:44;;;;;;;;;;;;;;;19.07;59.52441;101837.5;;;;-76
2022/10/04 15:33:34;;;;;;;;;;;;;;;19.05;59.52148;101838.2;;;;-76
2022/10/04 15:38:31;;;;;;;;;;;;;;;18.98;59.85254;101830.3;;;;-75
2022/10/04 15:43:33;;;;;;;;;;;;;;;18.93;60.06055;101819.6;;;;-74
2022/10/04 15:48:38;;;;;;;;;;;;;;;18.88;60.11133;101823.1;;;;-73
2022/10/04 15:53:43;;;;;;;;;;;;;;;18.84;60.26563;101823.6;;;;-74
2022/10/04 15:57:30;;;;;;;8.5;3.6;;;;;;;;;;;;;-72
2022/10/04 15:58:41;;;;;;;;;;;;;;;18.74;60.4209;101825.2;;;;-74
2022/10/04 16:03:37;;;;;;;;;;;;;;;18.68;60.59473;101826.7;;;;-75
2022/10/04 16:08:40;;;;;;;;;;;;;;;18.54;61.07422;101831.8;;;;-75
2022/10/04 16:13:35;;;;;;;;;;;;;;;18.45;61.52637;101833;;;;-74
2022/10/04 16:18:42;;;;;;;;;;;;;;;18.36;60.94727;101824.7;;;;-74
2022/10/04 16:23:38;;;;;;;;;;;;;;;18.25;61.31738;101820.2;;;;-76
2022/10/04 16:27:45;;;;;;;7.5;3.9;;;;;;;;;;;;;-76
2022/10/04 16:28:37;;;;;;;;;;;;;;;18.21;61.08496;101828.7;;;;-75
2022/10/04 16:33:33;;;;;;;;;;;;;;;18.14;61.2334;101815.5;;;;-75
2022/10/04 16:38:29;;;;;;;;;;;;;;;18.08;61.53125;101817.2;;;;-74
2022/10/04 16:43:30;;;;;;;;;;;;;;;17.98;61.49512;101832.4;;;;-74
2022/10/04 16:48:33;;;;;;;;;;;;;;;17.91;61.62109;101833.9;;;;-75
2022/10/04 16:53:35;;;;;;;;;;;;;;;17.83;61.63379;101833.9;;;;-71
2022/10/04 16:57:26;;;;;;;9.1;3.9;;;;;;;;;;;;;-71
2022/10/04 16:58:44;;;;;;;;;;;;;;;17.77;62.32715;101832.3;;;;-70
2022/10/04 17:03:32;;;;;;;;;;;;;;;17.67;62.0293;101820;;;;-70
2022/10/04 17:08:46;;;;;;;;;;;;;;;17.61;62.22363;101814.9;;;;-72
2022/10/04 17:13:33;;;;;;;;;;;;;;;17.55;62.23828;101816.1;;;;-75
2022/10/04 17:18:31;;;;;;;;;;;;;;;17.46;62.49707;101823.1;;;;-74
2022/10/04 17:23:36;;;;;;;;;;;;;;;17.37;63.53516;101827.5;;;;-75
2022/10/04 17:27:41;;;;;;;10.8;4.4;;;;;;;;;;;;;-74
2022/10/04 17:28:31;;;;;;;;;;;;;;;17.33;62.95313;101838.4;;;;-74
2022/10/04 17:33:32;;;;;;;;;;;;;;;17.25;64.19629;101831;;;;-76
2022/10/04 17:38:31;;;;;;;;;;;;;;;17.22;63.67188;101839.5;;;;-75
2022/10/04 17:43:30;;;;;;;;;;;;;;;17.17;63.87891;101842;;;;-74
2022/10/04 17:57:33;;;;;;;5.9;3.7;;;;;;;;;;;;;-74
2022/10/04 17:58:29;;;;;;;;;;;;;;;17.08;62.75977;101840;;;;-74
2022/10/04 18:03:29;;;;;;;;;;;;;;;17;64.76855;101833.6;;;;-74
2022/10/04 18:08:32;;;;;;;;;;;;;;;16.94;65.0293;101826.8;;;;-76
2022/10/04 18:13:30;;;;;;;;;;;;;;;16.93;64.81445;101827.5;;;;-75
2022/10/04 18:18:30;;;;;;;;;;;;;;;16.91;64.6416;101832;;;;-74
2022/10/04 18:23:29;;;;;;;;;;;;;;;16.86;65.19922;101834.9;;;;-75
2022/10/04 18:27:32;;;;;;;6.5;3.5;;;;;;;;;;;;;-75
2022/10/04 18:28:27;;;;;;;;;;;;;;;16.8;65.96875;101820;;;;-75
2022/10/04 18:33:28;;;;;;;;;;;;;;;16.78;65.36719;101813.6;;;;-74
2022/10/04 18:38:31;;;;;;;;;;;;;;;16.74;65.53027;101806.7;;;;-74
2022/10/04 18:43:32;;;;;;;;;;;;;;;16.69;65.32031;101792.2;;;;-75
2022/10/04 18:48:37;;;;;;;;;;;;;;;16.67;65.47461;101785.6;;;;-72
2022/10/04 18:53:34;;;;;;;;;;;;;;;16.71;66.90137;101769.1;;;;-75
2022/10/04 19:01:58;;;;;;;5.5;2.9;;;;;;;;;;;;;-75
2022/10/04 19:03:32;;;;;;;;;;;;;;;16.62;66.61621;101756.5;;;;-75
2022/10/04 19:08:33;;;;;;;;;;;;;;;16.59;66.61328;101748;;;;-73
2022/10/04 19:13:32;;;;;;;;;;;;;;;16.55;67.47266;101740.5;;;;-76
2022/10/04 19:18:35;;;;;;;;;;;;;;;16.52;66.25293;101740.9;;;;-74
2022/10/04 19:23:31;;;;;;;;;;;;;;;16.51;67.01758;101749.9;;;;-74
2022/10/04 19:27:38;;;;;;;5.8;3.1;;;;;;;;;;;;;-76
2022/10/04 19:28:29;;;;;;;;;;;;;;;16.48;67.24902;101756.9;;;;-76
2022/10/04 19:33:32;;;;;;;;;;;;;;;16.46;67.41504;101765.2;;;;-75
2022/10/04 19:38:36;;;;;;;;;;;;;;;16.41;67.80176;101749.9;;;;-73
2022/10/04 19:43:32;;;;;;;;;;;;;;;16.41;67.59961;101755;;;;-74
2022/10/04 19:48:32;;;;;;;;;;;;;;;16.38;68.37012;101754.8;;;;-75
2022/10/04 19:53:29;;;;;;;;;;;;;;;16.35;68.36621;101761.1;;;;-75
2022/10/04 19:57:41;;;;;;;8.7;3;;;;;;;;;;;;;-75
2022/10/04 19:58:33;;;;;;;;;;;;;;;16.33;67.81152;101759.7;;;;-76
2022/10/04 20:03:27;;;;;;;;;;;;;;;16.31;67.52637;101760.4;;;;-75
2022/10/04 20:08:38;;;;;;;;;;;;;;;16.31;68.18066;101764.2;;;;-71
2022/10/04 20:13:29;;;;;;;;;;;;;;;16.27;68.66797;101779.1;;;;-71
2022/10/04 20:18:39;;;;;;;;;;;;;;;16.23;69.19141;101778;;;;-71
2022/10/04 20:23:41;;;;;;;;;;;;;;;16.22;68.61621;101771.4;;;;-72
2022/10/04 20:27:51;;;;;;;4.2;2.4;;;;;;;;;;;;;-71
2022/10/04 20:28:38;;;;;;;;;;;;;;;16.21;69.47949;101774;;;;-71
2022/10/04 20:33:38;;;;;;;;;;;;;;;16.17;69.02344;101774;;;;-74
2022/10/04 20:38:37;;;;;;;;;;;;;;;16.16;69.34863;101781.1;;;;-74
2022/10/04 20:43:32;;;;;;;;;;;;;;;16.14;68.6377;101775.1;;;;-70
2022/10/04 20:48:28;;;;;;;;;;;;;;;16.12;68.81445;101772.8;;;;-71
2022/10/04 20:53:28;;;;;;;;;;;;;;;16.1;68.6875;101769.6;;;;-76
2022/10/04 20:57:44;;;;;;;4.5;2;;;;;;;;;;;;;-75
2022/10/04 20:58:39;;;;;;;;;;;;;;;16.07;69.16602;101767.6;;;;-75
2022/10/04 21:03:27;;;;;;;;;;;;;;;16.07;68.48145;101766.7;;;;-73
2022/10/04 21:08:28;;;;;;;;;;;;;;;16.05;69.07422;101776.1;;;;-74
2022/10/04 21:13:40;;;;;;;;;;;;;;;16.03;69.51953;101772.9;;;;-75
2022/10/04 21:18:27;;;;;;;;;;;;;;;16;70.22363;101773;;;;-74
2022/10/04 21:23:29;;;;;;;;;;;;;;;15.98;69.78125;101771.4;;;;-74
2022/10/04 21:27:44;;;;;;;4.5;1.9;;;;;;;;;;;;;-73
2022/10/04 21:28:41;;;;;;;;;;;;;;;15.98;69.24121;101771.3;;;;-74
2022/10/04 21:33:27;;;;;;;;;;;;;;;15.95;69.63086;101757.6;;;;-74
2022/10/04 21:38:27;;;;;;;;;;;;;;;15.92;69.57031;101753.3;;;;-74
2022/10/04 21:43:27;;;;;;;;;;;;;;;15.91;70.05176;101751.7;;;;-74
2022/10/04 21:48:27;;;;;;;;;;;;;;;15.9;69.43066;101744.3;;;;-75
2022/10/04 21:53:27;;;;;;;;;;;;;;;15.88;69.14746;101743.3;;;;-73
2022/10/04 21:57:45;;;;;;;3.4;1.6;;;;;;;;;;;;;-74
2022/10/04 21:58:27;;;;;;;;;;;;;;;15.86;69.02051;101735.6;;;;-75
2022/10/04 22:03:27;;;;;;;;;;;;;;;15.82;69.66699;101733;;;;-74
2022/10/04 22:08:27;;;;;;;;;;;;;;;15.79;70.11035;101721.1;;;;-74
2022/10/04 22:13:27;;;;;;;;;;;;;;;15.76;69.75781;101723.2;;;;-74
2022/10/04 22:18:27;;;;;;;;;;;;;;;15.75;69.56543;101720.3;;;;-74
2022/10/04 22:23:28;;;;;;;;;;;;;;;15.72;69.88672;101719.8;;;;-74
2022/10/04 22:27:47;;;;;;;3.9;1.5;;;;;;;;;;;;;-75
2022/10/04 22:28:28;;;;;;;;;;;;;;;15.72;69.69434;101721.1;;;;-74
2022/10/04 22:33:31;;;;;;;;;;;;;;;15.69;69.70117;101713.8;;;;-74
2022/10/04 22:38:27;;;;;;;;;;;;;;;15.68;69.48828;101714.2;;;;-75
2022/10/04 22:43:27;;;;;;;;;;;;;;;15.67;69.6875;101715.4;;;;-74
2022/10/04 22:48:27;;;;;;;;;;;;;;;15.66;69.49512;101721;;;;-75
2022/10/04 22:53:27;;;;;;;;;;;;;;;15.65;69.34766;101731.5;;;;-75
2022/10/04 22:57:49;;;;;;;4.8;1.9;;;;;;;;;;;;;-74
2022/10/04 22:58:27;;;;;;;;;;;;;;;15.63;69.62695;101728.8;;;;-74
2022/10/04 23:03:33;;;;;;;;;;;;;;;15.62;69.25293;101726.6;;;;-74
2022/10/04 23:08:27;;;;;;;;;;;;;;;15.6;69.01465;101721.6;;;;-73
2022/10/04 23:13:27;;;;;;;;;;;;;;;15.59;69.85547;101715.2;;;;-74
2022/10/04 23:18:27;;;;;;;;;;;;;;;15.57;69.96289;101706.1;;;;-74
2022/10/04 23:23:29;;;;;;;;;;;;;;;15.57;69.62695;101706.5;;;;-75
2022/10/04 23:27:51;;;;;;;3.4;1.8;;;;;;;;;;;;;-70
2022/10/04 23:28:27;;;;;;;;;;;;;;;15.57;69.99707;101705.3;;;;-69
2022/10/04 23:33:27;;;;;;;;;;;;;;;15.55;70.49902;101704.8;;;;-74
2022/10/04 23:38:28;;;;;;;;;;;;;;;15.53;70.59766;101712.3;;;;-74
2022/10/04 23:43:30;;;;;;;;;;;;;;;15.53;70.48535;101704.6;;;;-73
2022/10/04 23:48:30;;;;;;;;;;;;;;;15.52;70.78516;101700.2;;;;-74
2022/10/04 23:53:29;;;;;;;;;;;;;;;15.5;70.64746;101699.3;;;;-75
2022/10/04 23:57:52;;;;;;;4.5;1.5;;;;;;;;;;;;;-75
2022/10/04 23:58:28;;;;;;;;;;;;;;;15.5;71.11914;101699.7;;;;-73
